Terminal Aerodrome Forecast
Issued by NWS Chicago, IL

Home | Current Version | Previous Version | Text Only | Print | Product List | Glossary Off
Versions: 1 2 3 4 5 6 7 8 9 10 11 12 13 14 15 16 17 18 19 20 21 22 23 24 25 26 27 28 29 30 31 32 33 34 35 36 37

000
FTUS43 KLOT 242300
TAFRFD
TAF
KRFD 242320Z 2500/2524 19006KT P6SM SCT090 OVC250
     FM250200 21005KT 6SM BR BKN030
     FM250500 23004KT 3SM BR SCT006 OVC020
     FM250900 28007KT 4SM BR SCT008 BKN025
     FM251400 30007KT P6SM FEW250
     FM251800 30012G19KT P6SM FEW250=

USA.gov is the U.S. government's official web portal to all federal, state and local government web resources and services.